Time;durP1;ratioP1;P1;durP2;ratioP2;P2;SDS_P1;SDS_P2;PMS_P1;PMS_P2;Temp;Humidity;BMP_temperature;BMP_pressure;BME280_temperature;BME280_humidity;BME280_pressure;Samples;Min_cycle;Max_cycle;Signal;HPM_P1;HPM_P2
2023/07/01 00:01:56;;;;;;;;;;;18.20;89.20;;;;;;5031329;28;19925;-44
2023/07/01 00:04:23;;;;;;;;;;;18.20;88.10;;;;;;5013444;28;20044;-44
2023/07/01 00:06:50;;;;;;;;;;;18.20;88.20;;;;;;5030910;28;20365;-44
2023/07/01 00:09:16;;;;;;;;;;;18.20;89.00;;;;;;5014770;28;20281;-43
2023/07/01 00:11:43;;;;;;;;;;;18.20;88.70;;;;;;5031292;28;19979;-44
2023/07/01 00:14:10;;;;;;;;;;;18.20;89.30;;;;;;5011444;28;19932;-44
2023/07/01 00:16:39;;;;;;;;;;;18.20;89.70;;;;;;5028121;28;19925;-44
2023/07/01 00:19:07;;;;;;;;;;;18.20;89.80;;;;;;5030322;28;20048;-43
2023/07/01 00:21:33;;;;;;;;;;;18.20;90.30;;;;;;5032079;28;19932;-44
2023/07/01 00:24:00;;;;;;;;;;;18.10;89.90;;;;;;5046409;28;19968;-44
2023/07/01 00:26:27;;;;;;;;;;;18.10;90.20;;;;;;5030983;28;20328;-44
2023/07/01 00:28:53;;;;;;;;;;;18.20;90.30;;;;;;5030891;28;19925;-45
2023/07/01 00:31:20;;;;;;;;;;;18.10;90.10;;;;;;5013391;28;19968;-44
2023/07/01 00:33:48;;;;;;;;;;;18.10;90.30;;;;;;5031756;28;19925;-44
2023/07/01 00:36:15;;;;;;;;;;;18.20;90.90;;;;;;5030727;28;19929;-44
2023/07/01 00:38:41;;;;;;;;;;;18.10;91.10;;;;;;5013349;28;19925;-48
2023/07/01 00:41:08;;;;;;;;;;;18.10;90.70;;;;;;5013845;28;19937;-44
2023/07/01 00:43:35;;;;;;;;;;;18.10;91.00;;;;;;5030743;28;19972;-44
2023/07/01 00:46:01;;;;;;;;;;;18.10;91.20;;;;;;5031288;28;19929;-44
2023/07/01 00:48:28;;;;;;;;;;;18.10;90.80;;;;;;5012288;28;19972;-44
2023/07/01 00:50:56;;;;;;;;;;;18.10;90.80;;;;;;5030698;28;19972;-44
2023/07/01 00:53:23;;;;;;;;;;;18.10;91.40;;;;;;5012846;28;19925;-43
2023/07/01 00:55:50;;;;;;;;;;;18.10;90.90;;;;;;5031129;28;19971;-44
2023/07/01 00:58:17;;;;;;;;;;;18.10;91.30;;;;;;5013733;28;19960;-44
2023/07/01 01:00:43;;;;;;;;;;;18.10;91.50;;;;;;5028453;28;20336;-44
2023/07/01 01:03:15;;;;;;;;;;;18.10;91.20;;;;;;5016157;28;19925;-44
2023/07/01 01:05:43;;;;;;;;;;;18.10;91.40;;;;;;5012728;28;19925;-44
2023/07/01 01:08:12;;;;;;;;;;;18.10;91.60;;;;;;5031462;28;20447;-44
2023/07/01 01:10:39;;;;;;;;;;;18.10;91.80;;;;;;5011515;28;19925;-44
2023/07/01 01:13:06;;;;;;;;;;;18.10;91.80;;;;;;5031074;28;20012;-44
2023/07/01 01:15:33;;;;;;;;;;;18.10;91.70;;;;;;5030470;28;19925;-44
2023/07/01 01:18:00;;;;;;;;;;;18.10;92.20;;;;;;5031111;28;19929;-44
2023/07/01 01:20:28;;;;;;;;;;;18.10;92.10;;;;;;5012245;28;19925;-44
2023/07/01 01:22:56;;;;;;;;;;;18.10;92.30;;;;;;5030851;28;19925;-44
2023/07/01 01:25:27;;;;;;;;;;;18.10;92.50;;;;;;5012816;28;19925;-44
2023/07/01 01:27:55;;;;;;;;;;;18.00;92.30;;;;;;5012770;28;19931;-45
2023/07/01 01:30:22;;;;;;;;;;;18.00;92.80;;;;;;5030786;28;19925;-44
2023/07/01 01:32:49;;;;;;;;;;;18.10;92.90;;;;;;5013708;28;19932;-44
2023/07/01 01:35:16;;;;;;;;;;;18.10;92.60;;;;;;5013230;28;19929;-43
2023/07/01 01:37:44;;;;;;;;;;;18.10;92.70;;;;;;5018907;28;19975;-44
2023/07/01 01:40:12;;;;;;;;;;;18.00;92.80;;;;;;5020591;28;19932;-44
2023/07/01 01:42:39;;;;;;;;;;;18.00;92.90;;;;;;5030672;28;19929;-44
2023/07/01 01:45:08;;;;;;;;;;;18.10;92.80;;;;;;5030921;28;20342;-43
2023/07/01 01:47:34;;;;;;;;;;;18.00;93.30;;;;;;5030979;28;19929;-43
2023/07/01 01:50:03;;;;;;;;;;;18.00;93.00;;;;;;5031336;28;20328;-44
2023/07/01 01:52:30;;;;;;;;;;;18.10;93.90;;;;;;5034263;28;19932;-44
2023/07/01 01:54:57;;;;;;;;;;;18.00;94.00;;;;;;5034260;28;19932;-44
2023/07/01 01:57:23;;;;;;;;;;;18.00;94.50;;;;;;5024546;28;19926;-44
2023/07/01 01:59:50;;;;;;;;;;;18.00;93.90;;;;;;5034225;28;19964;-44
2023/07/01 02:02:18;;;;;;;;;;;17.90;95.00;;;;;;5033755;28;19925;-44
2023/07/01 02:04:45;;;;;;;;;;;17.90;95.60;;;;;;5033918;28;19925;-44
2023/07/01 02:07:11;;;;;;;;;;;17.80;95.00;;;;;;5033648;28;20277;-45
2023/07/01 02:09:38;;;;;;;;;;;17.80;95.70;;;;;;5033854;28;19925;-44
2023/07/01 02:12:05;;;;;;;;;;;17.80;95.40;;;;;;5034760;28;19925;-44
2023/07/01 02:14:32;;;;;;;;;;;17.70;95.70;;;;;;5021854;28;19925;-44
2023/07/01 02:16:59;;;;;;;;;;;17.70;95.80;;;;;;5026606;28;19969;-43
2023/07/01 02:19:27;;;;;;;;;;;17.70;95.90;;;;;;5026948;28;19980;-44
2023/07/01 02:21:56;;;;;;;;;;;17.70;95.90;;;;;;5033703;28;19964;-44
2023/07/01 02:24:23;;;;;;;;;;;17.70;95.60;;;;;;5017080;28;19972;-43
2023/07/01 02:26:50;;;;;;;;;;;17.70;95.60;;;;;;5033776;28;20365;-44
2023/07/01 02:29:16;;;;;;;;;;;17.70;95.40;;;;;;5016175;28;19935;-43
2023/07/01 02:31:43;;;;;;;;;;;17.70;95.30;;;;;;5028728;28;19948;-44
2023/07/01 02:34:10;;;;;;;;;;;17.70;95.90;;;;;;5033831;28;19925;-43
2023/07/01 02:36:40;;;;;;;;;;;17.70;96.00;;;;;;5034092;28;19936;-44
2023/07/01 02:39:07;;;;;;;;;;;17.70;96.10;;;;;;5016138;28;20365;-44
2023/07/01 02:41:33;;;;;;;;;;;17.80;95.90;;;;;;5033460;28;19971;-44
2023/07/01 02:44:00;;;;;;;;;;;17.70;96.00;;;;;;5015586;28;19971;-45
2023/07/01 02:46:27;;;;;;;;;;;17.70;96.10;;;;;;5032289;28;19939;-44
2023/07/01 02:48:54;;;;;;;;;;;17.70;96.20;;;;;;5031340;28;19951;-44
2023/07/01 02:51:20;;;;;;;;;;;17.70;96.10;;;;;;5016223;28;19928;-44
2023/07/01 02:53:48;;;;;;;;;;;17.70;96.20;;;;;;5033152;28;19929;-44
2023/07/01 02:56:15;;;;;;;;;;;17.70;96.80;;;;;;5048491;28;19925;-44
2023/07/01 02:58:42;;;;;;;;;;;17.60;97.30;;;;;;5015320;28;19929;-44
2023/07/01 03:01:08;;;;;;;;;;;17.60;97.70;;;;;;5015432;28;20296;-44
2023/07/01 03:03:35;;;;;;;;;;;17.60;97.80;;;;;;5014479;28;20337;-43
2023/07/01 03:06:02;;;;;;;;;;;17.60;97.20;;;;;;5029104;28;19932;-45
2023/07/01 03:08:28;;;;;;;;;;;17.60;98.30;;;;;;5015337;28;20436;-44
2023/07/01 03:10:56;;;;;;;;;;;17.50;98.60;;;;;;5015239;28;19929;-43
2023/07/01 03:13:23;;;;;;;;;;;17.50;99.50;;;;;;5032713;28;19925;-44
2023/07/01 03:15:50;;;;;;;;;;;17.40;99.80;;;;;;5033383;28;19965;-44
2023/07/01 03:18:17;;;;;;;;;;;17.40;99.90;;;;;;5032652;28;20142;-44
2023/07/01 03:20:43;;;;;;;;;;;17.30;99.90;;;;;;5032603;28;19925;-42
2023/07/01 03:23:10;;;;;;;;;;;17.20;99.90;;;;;;5023310;28;20352;-43
2023/07/01 03:25:38;;;;;;;;;;;17.10;99.90;;;;;;5032378;28;19929;-45
2023/07/01 03:28:06;;;;;;;;;;;17.10;99.90;;;;;;5032966;28;20288;-44
2023/07/01 03:30:33;;;;;;;;;;;17.00;99.90;;;;;;5032139;28;19925;-44
2023/07/01 03:32:59;;;;;;;;;;;17.00;99.90;;;;;;5014980;28;19925;-44
2023/07/01 03:35:26;;;;;;;;;;;16.90;99.90;;;;;;5032130;28;19925;-44
2023/07/01 03:37:53;;;;;;;;;;;16.80;99.90;;;;;;5032446;28;20342;-44
2023/07/01 03:40:20;;;;;;;;;;;16.80;99.90;;;;;;5020814;28;19971;-44
2023/07/01 03:42:46;;;;;;;;;;;16.80;99.90;;;;;;5047653;28;20289;-44
2023/07/01 03:45:14;;;;;;;;;;;16.70;99.90;;;;;;5014313;28;19976;-44
2023/07/01 03:47:42;;;;;;;;;;;16.70;99.90;;;;;;5031780;28;19928;-43
2023/07/01 03:50:09;;;;;;;;;;;16.60;99.90;;;;;;5031898;28;20424;-43
2023/07/01 03:52:36;;;;;;;;;;;16.60;99.90;;;;;;5033074;28;19925;-43
2023/07/01 03:55:02;;;;;;;;;;;16.60;99.90;;;;;;5032215;28;20357;-43
2023/07/01 03:57:29;;;;;;;;;;;16.50;99.90;;;;;;5014179;28;19933;-43
2023/07/01 03:59:56;;;;;;;;;;;16.60;99.90;;;;;;5031624;28;19963;-43
2023/07/01 04:02:24;;;;;;;;;;;16.50;99.90;;;;;;5014186;28;19935;-43
2023/07/01 04:04:51;;;;;;;;;;;16.50;99.90;;;;;;5046899;28;19925;-43
2023/07/01 04:07:21;;;;;;;;;;;16.50;99.90;;;;;;5032745;28;19929;-44
2023/07/01 04:09:48;;;;;;;;;;;16.50;99.90;;;;;;5014480;28;19929;-44
2023/07/01 04:12:15;;;;;;;;;;;16.50;99.90;;;;;;5029976;28;20362;-44
2023/07/01 04:14:41;;;;;;;;;;;16.50;99.90;;;;;;5019605;28;20428;-43
2023/07/01 04:17:08;;;;;;;;;;;16.50;99.90;;;;;;5031500;28;19925;-43
2023/07/01 04:19:36;;;;;;;;;;;16.50;99.90;;;;;;4998290;28;20289;-43
2023/07/01 04:22:03;;;;;;;;;;;16.50;99.90;;;;;;5011869;28;19932;-43
2023/07/01 04:24:30;;;;;;;;;;;16.50;99.90;;;;;;5031248;28;19969;-43
2023/07/01 04:26:57;;;;;;;;;;;16.50;99.90;;;;;;5013790;28;19925;-43
2023/07/01 04:29:23;;;;;;;;;;;16.50;99.90;;;;;;5031000;28;19929;-43
2023/07/01 04:31:50;;;;;;;;;;;16.50;99.90;;;;;;5014279;28;19932;-43
2023/07/01 04:34:17;;;;;;;;;;;16.50;99.90;;;;;;5031531;28;19991;-43
2023/07/01 04:36:48;;;;;;;;;;;16.50;99.90;;;;;;5031322;28;19925;-43
2023/07/01 04:39:15;;;;;;;;;;;16.50;99.90;;;;;;5047260;28;19932;-42
2023/07/01 04:41:41;;;;;;;;;;;16.50;99.90;;;;;;5013849;28;19925;-43
2023/07/01 04:44:08;;;;;;;;;;;16.50;99.90;;;;;;5012234;28;19936;-43
2023/07/01 04:46:35;;;;;;;;;;;16.50;99.90;;;;;;5014246;28;19925;-43
2023/07/01 04:49:01;;;;;;;;;;;16.50;99.90;;;;;;5031164;28;19972;-43
2023/07/01 04:51:28;;;;;;;;;;;16.50;99.90;;;;;;5031524;28;19951;-42
2023/07/01 04:53:56;;;;;;;;;;;16.50;99.90;;;;;;5019111;28;19932;-43
2023/07/01 04:56:24;;;;;;;;;;;16.50;99.90;;;;;;5046376;28;19971;-43
2023/07/01 04:58:50;;;;;;;;;;;16.50;99.90;;;;;;5031254;28;20439;-43
2023/07/01 05:01:17;;;;;;;;;;;16.40;99.90;;;;;;5031366;28;19925;-44
2023/07/01 05:03:44;;;;;;;;;;;16.50;99.90;;;;;;5008837;28;19932;-44
2023/07/01 05:06:11;;;;;;;;;;;16.50;99.90;;;;;;5027539;28;19971;-43
2023/07/01 05:08:37;;;;;;;;;;;16.50;99.90;;;;;;5012741;28;20285;-43
2023/07/01 05:11:05;;;;;;;;;;;16.50;99.90;;;;;;5031080;28;19925;-43
2023/07/01 05:13:32;;;;;;;;;;;16.50;99.90;;;;;;5000515;28;19933;-43
2023/07/01 05:15:59;;;;;;;;;;;16.50;99.90;;;;;;5046523;28;19928;-43
2023/07/01 05:18:25;;;;;;;;;;;16.60;99.90;;;;;;5013518;28;20297;-43
2023/07/01 05:20:52;;;;;;;;;;;16.60;99.90;;;;;;5012101;28;19925;-43
2023/07/01 05:23:19;;;;;;;;;;;16.60;99.90;;;;;;5031146;28;20028;-43
2023/07/01 05:25:45;;;;;;;;;;;16.60;99.90;;;;;;5015652;28;19925;-42
2023/07/01 05:28:14;;;;;;;;;;;16.60;99.90;;;;;;5034593;28;19925;-44
2023/07/01 05:30:41;;;;;;;;;;;16.60;99.90;;;;;;5034800;28;19925;-44
2023/07/01 05:33:07;;;;;;;;;;;16.70;99.90;;;;;;5017456;28;19925;-43
2023/07/01 05:35:34;;;;;;;;;;;16.70;99.90;;;;;;5016854;28;19959;-43
2023/07/01 05:38:06;;;;;;;;;;;16.70;99.90;;;;;;5010264;28;19930;-44
2023/07/01 05:40:33;;;;;;;;;;;16.70;99.90;;;;;;5029287;28;19941;-43
2023/07/01 05:43:00;;;;;;;;;;;16.80;99.90;;;;;;5027059;28;20026;-44
2023/07/01 05:45:28;;;;;;;;;;;16.80;99.90;;;;;;5034512;28;19925;-43
2023/07/01 05:47:54;;;;;;;;;;;16.80;99.90;;;;;;5034309;28;19925;-43
2023/07/01 05:50:21;;;;;;;;;;;16.90;99.90;;;;;;5034986;28;19948;-43
2023/07/01 05:52:48;;;;;;;;;;;16.90;99.90;;;;;;5004635;28;19926;-44
2023/07/01 05:55:14;;;;;;;;;;;16.90;99.90;;;;;;5019595;28;19929;-43
2023/07/01 05:57:41;;;;;;;;;;;16.90;99.90;;;;;;5024239;28;19963;-44
2023/07/01 06:00:09;;;;;;;;;;;17.00;99.90;;;;;;5017002;28;19929;-44
2023/07/01 06:02:38;;;;;;;;;;;17.00;99.90;;;;;;5033356;28;20370;-44
2023/07/01 06:05:05;;;;;;;;;;;16.90;99.90;;;;;;5035118;28;20020;-44
2023/07/01 06:07:31;;;;;;;;;;;16.90;99.90;;;;;;5007205;28;19926;-44
2023/07/01 06:09:58;;;;;;;;;;;16.90;99.90;;;;;;5023891;28;19933;-44
2023/07/01 06:12:25;;;;;;;;;;;17.00;99.90;;;;;;5032915;28;20309;-44
2023/07/01 06:14:52;;;;;;;;;;;16.90;99.90;;;;;;5014574;28;20328;-43
2023/07/01 06:17:19;;;;;;;;;;;16.90;99.90;;;;;;5034100;28;19925;-43
2023/07/01 06:19:47;;;;;;;;;;;16.90;99.90;;;;;;5033811;28;19960;-43
2023/07/01 06:22:13;;;;;;;;;;;17.00;99.90;;;;;;5033922;28;20377;-43
2023/07/01 06:24:40;;;;;;;;;;;17.00;99.90;;;;;;5015964;28;19929;-42
2023/07/01 06:27:07;;;;;;;;;;;17.00;99.90;;;;;;5032295;28;19980;-43
2023/07/01 06:29:33;;;;;;;;;;;17.00;99.90;;;;;;5032948;28;19933;-44
2023/07/01 06:32:00;;;;;;;;;;;17.00;99.90;;;;;;5033220;28;19929;-44
2023/07/01 06:34:27;;;;;;;;;;;17.10;99.90;;;;;;5033698;28;19925;-43
2023/07/01 06:36:55;;;;;;;;;;;17.10;99.90;;;;;;5029275;28;19925;-43
2023/07/01 06:39:22;;;;;;;;;;;17.10;99.90;;;;;;5029978;28;20324;-44
2023/07/01 06:41:48;;;;;;;;;;;17.10;99.90;;;;;;5032930;28;20301;-45
2023/07/01 06:44:15;;;;;;;;;;;17.10;99.90;;;;;;5010068;28;19926;-43
2023/07/01 06:46:42;;;;;;;;;;;17.10;99.90;;;;;;5017000;28;19984;-42
2023/07/01 06:49:09;;;;;;;;;;;17.00;99.90;;;;;;5009261;28;20420;-44
2023/07/01 06:51:36;;;;;;;;;;;17.00;99.90;;;;;;5040939;28;19960;-43
2023/07/01 06:54:04;;;;;;;;;;;17.00;99.90;;;;;;5038574;28;20388;-42
2023/07/01 06:56:31;;;;;;;;;;;17.00;99.90;;;;;;5027743;28;19932;-42
2023/07/01 06:58:57;;;;;;;;;;;17.00;99.90;;;;;;5031280;28;19925;-42
2023/07/01 07:01:24;;;;;;;;;;;17.00;99.90;;;;;;5030374;28;19925;-41
2023/07/01 07:03:51;;;;;;;;;;;17.00;99.90;;;;;;5030609;28;19975;-42
2023/07/01 07:06:17;;;;;;;;;;;17.00;99.90;;;;;;5030764;28;19932;-42
2023/07/01 07:08:44;;;;;;;;;;;17.00;99.90;;;;;;5030159;28;20317;-42
2023/07/01 07:11:12;;;;;;;;;;;17.00;99.90;;;;;;5047490;28;20034;-42
2023/07/01 07:13:39;;;;;;;;;;;17.00;99.90;;;;;;5032395;28;19925;-42
2023/07/01 07:16:05;;;;;;;;;;;17.10;99.90;;;;;;5028123;28;19932;-42
2023/07/01 07:18:32;;;;;;;;;;;17.10;99.90;;;;;;5015431;28;19925;-42
2023/07/01 07:20:59;;;;;;;;;;;17.10;99.90;;;;;;5032091;28;20296;-43
2023/07/01 07:23:25;;;;;;;;;;;17.10;99.90;;;;;;5031930;28;19966;-43
2023/07/01 07:25:52;;;;;;;;;;;17.10;99.90;;;;;;5028105;28;20356;-43
2023/07/01 07:28:20;;;;;;;;;;;17.10;99.90;;;;;;5005250;28;20023;-42
2023/07/01 07:30:47;;;;;;;;;;;17.00;99.90;;;;;;5032056;28;20439;-43
2023/07/01 07:33:13;;;;;;;;;;;17.10;99.90;;;;;;5014840;28;19929;-43
2023/07/01 07:35:40;;;;;;;;;;;17.10;99.90;;;;;;5047917;28;19925;-43
2023/07/01 07:38:07;;;;;;;;;;;17.10;99.90;;;;;;5047890;28;19925;-43
2023/07/01 07:40:33;;;;;;;;;;;17.10;99.90;;;;;;5013733;28;19931;-43
2023/07/01 07:43:04;;;;;;;;;;;17.10;99.90;;;;;;5023861;28;19929;-42
2023/07/01 07:45:33;;;;;;;;;;;17.20;99.90;;;;;;5013794;28;20439;-42
2023/07/01 07:48:00;;;;;;;;;;;17.20;99.90;;;;;;5038370;28;19983;-43
2023/07/01 07:50:27;;;;;;;;;;;17.20;99.90;;;;;;5013298;28;20483;-43
2023/07/01 07:52:53;;;;;;;;;;;17.30;99.90;;;;;;5032004;28;19961;-42
2023/07/01 07:55:20;;;;;;;;;;;17.30;99.90;;;;;;5027085;28;19929;-43
2023/07/01 07:57:48;;;;;;;;;;;17.30;99.90;;;;;;5003237;28;19933;-43
2023/07/01 08:00:15;;;;;;;;;;;17.30;99.90;;;;;;5028134;28;19983;-43
2023/07/01 08:02:44;;;;;;;;;;;17.30;99.90;;;;;;5025117;28;20369;-42
2023/07/01 08:05:11;;;;;;;;;;;17.40;99.90;;;;;;5024983;28;19933;-43
2023/07/01 08:07:41;;;;;;;;;;;17.40;99.90;;;;;;5024877;28;19929;-43
2023/07/01 08:10:08;;;;;;;;;;;17.50;99.90;;;;;;5025834;28;19924;-43
2023/07/01 08:12:34;;;;;;;;;;;17.50;99.90;;;;;;5002297;28;19983;-43
2023/07/01 08:15:01;;;;;;;;;;;17.50;99.90;;;;;;5022558;28;19989;-43
2023/07/01 08:17:28;;;;;;;;;;;17.50;99.90;;;;;;5022482;28;20396;-44
2023/07/01 08:19:56;;;;;;;;;;;17.50;99.90;;;;;;5022245;28;19933;-44
2023/07/01 08:22:23;;;;;;;;;;;17.60;99.90;;;;;;5029943;28;19932;-44
2023/07/01 08:24:49;;;;;;;;;;;17.60;99.90;;;;;;5021418;28;19926;-42
2023/07/01 08:27:16;;;;;;;;;;;17.60;99.90;;;;;;5029528;28;19926;-42
2023/07/01 08:29:43;;;;;;;;;;;17.60;99.90;;;;;;5009618;28;19924;-43
2023/07/01 08:32:10;;;;;;;;;;;17.70;99.90;;;;;;5031762;28;19971;-44
2023/07/01 08:34:37;;;;;;;;;;;17.70;99.90;;;;;;5013927;28;20415;-44
2023/07/01 08:37:05;;;;;;;;;;;17.70;99.90;;;;;;5029592;28;19925;-44
2023/07/01 08:39:32;;;;;;;;;;;17.80;99.90;;;;;;5030448;28;19925;-43
2023/07/01 08:42:02;;;;;;;;;;;17.80;99.90;;;;;;5012904;28;20003;-43
2023/07/01 08:44:29;;;;;;;;;;;17.80;99.90;;;;;;5012749;28;19972;-43
2023/07/01 08:46:56;;;;;;;;;;;17.80;99.90;;;;;;5030162;28;20306;-44
2023/07/01 08:49:23;;;;;;;;;;;17.90;99.90;;;;;;5029504;28;20144;-42
2023/07/01 08:51:51;;;;;;;;;;;17.80;99.90;;;;;;5008564;28;19933;-44
2023/07/01 08:54:19;;;;;;;;;;;17.90;99.90;;;;;;5020173;28;19925;-44
2023/07/01 08:56:47;;;;;;;;;;;17.90;99.90;;;;;;5021279;28;19979;-43
2023/07/01 08:59:14;;;;;;;;;;;18.00;99.90;;;;;;5027024;28;20381;-44
2023/07/01 09:01:41;;;;;;;;;;;18.00;99.90;;;;;;5041874;28;20385;-44
2023/07/01 09:04:08;;;;;;;;;;;18.00;99.90;;;;;;5030651;28;19925;-45
2023/07/01 09:06:34;;;;;;;;;;;18.10;99.90;;;;;;5016232;28;19972;-44
2023/07/01 09:09:01;;;;;;;;;;;18.10;99.90;;;;;;5029880;28;19976;-43
2023/07/01 09:11:29;;;;;;;;;;;18.10;99.90;;;;;;5021399;28;19941;-44
2023/07/01 09:13:56;;;;;;;;;;;18.10;99.90;;;;;;5046974;28;19971;-43
2023/07/01 09:16:33;;;;;;;;;;;18.10;99.90;;;;;;5028253;28;19952;-43
2023/07/01 09:19:04;;;;;;;;;;;18.10;99.90;;;;;;5026030;28;19925;-43
2023/07/01 09:21:32;;;;;;;;;;;18.20;99.90;;;;;;5028920;28;19982;-44
2023/07/01 09:23:59;;;;;;;;;;;18.20;99.90;;;;;;5030485;28;19952;-45
2023/07/01 09:26:26;;;;;;;;;;;18.30;99.90;;;;;;5025587;28;20009;-44
2023/07/01 09:28:55;;;;;;;;;;;18.30;99.90;;;;;;5028439;28;19932;-43
2023/07/01 09:31:21;;;;;;;;;;;18.40;99.90;;;;;;5011875;28;20298;-43
2023/07/01 09:33:58;;;;;;;;;;;18.50;99.90;;;;;;5030020;28;19991;-44
2023/07/01 09:36:25;;;;;;;;;;;18.50;99.90;;;;;;5009577;28;19972;-44
2023/07/01 09:38:52;;;;;;;;;;;18.50;99.90;;;;;;5027476;28;20293;-44
2023/07/01 09:41:19;;;;;;;;;;;18.50;99.90;;;;;;5033714;28;19968;-45
2023/07/01 09:43:45;;;;;;;;;;;18.60;99.90;;;;;;5045766;28;19971;-43
2023/07/01 09:46:13;;;;;;;;;;;18.60;99.90;;;;;;5024374;28;19930;-45
2023/07/01 09:48:45;;;;;;;;;;;18.60;99.90;;;;;;5030473;28;20404;-44
2023/07/01 09:51:11;;;;;;;;;;;18.70;99.90;;;;;;5018773;28;19932;-44
2023/07/01 09:53:38;;;;;;;;;;;18.70;99.90;;;;;;5042839;28;19948;-45
2023/07/01 09:56:06;;;;;;;;;;;18.70;99.90;;;;;;5031619;28;19932;-44
2023/07/01 09:58:33;;;;;;;;;;;18.70;99.90;;;;;;5027338;28;20011;-44
2023/07/01 10:00:59;;;;;;;;;;;18.70;99.90;;;;;;5022479;28;19987;-44
2023/07/01 10:03:28;;;;;;;;;;;18.70;99.90;;;;;;5025654;28;19971;-44
2023/07/01 10:05:55;;;;;;;;;;;18.70;99.90;;;;;;5025384;28;19940;-44
2023/07/01 10:08:21;;;;;;;;;;;18.70;99.90;;;;;;5023190;28;20182;-43
2023/07/01 10:10:58;;;;;;;;;;;18.70;99.90;;;;;;5023504;28;20019;-43
2023/07/01 10:13:25;;;;;;;;;;;18.70;99.90;;;;;;5005150;28;19925;-43
2023/07/01 10:15:51;;;;;;;;;;;18.70;99.90;;;;;;5032095;28;20335;-43
2023/07/01 10:18:24;;;;;;;;;;;18.70;99.90;;;;;;5030078;28;19933;-43
2023/07/01 10:20:52;;;;;;;;;;;18.60;99.90;;;;;;5003201;28;19929;-44
2023/07/01 10:23:19;;;;;;;;;;;18.70;99.90;;;;;;5024274;28;19933;-44
2023/07/01 10:25:46;;;;;;;;;;;18.80;99.90;;;;;;5008618;28;20005;-43
2023/07/01 10:28:12;;;;;;;;;;;18.70;99.90;;;;;;5027274;28;19972;-43
2023/07/01 10:30:58;;;;;;;;;;;18.80;99.90;;;;;;5027057;28;19979;-43
2023/07/01 10:33:43;;;;;;;;;;;18.80;99.90;;;;;;5005949;28;19925;-43
2023/07/01 10:36:13;;;;;;;;;;;18.90;99.90;;;;;;5010484;28;19925;-43
2023/07/01 10:38:39;;;;;;;;;;;18.90;99.90;;;;;;5027615;28;19966;-44
2023/07/01 10:41:06;;;;;;;;;;;18.90;99.90;;;;;;5005305;28;19988;-43
2023/07/01 10:43:33;;;;;;;;;;;19.00;99.90;;;;;;5002628;28;19925;-42
2023/07/01 10:46:03;;;;;;;;;;;19.00;99.90;;;;;;5022875;28;19930;-43
2023/07/01 10:48:30;;;;;;;;;;;19.10;99.90;;;;;;5009882;28;19932;-43
2023/07/01 10:51:00;;;;;;;;;;;19.10;99.90;;;;;;5028271;28;20381;-43
2023/07/01 10:53:29;;;;;;;;;;;19.10;99.90;;;;;;5011006;28;19968;-43
2023/07/01 10:56:09;;;;;;;;;;;19.10;99.90;;;;;;5009639;28;19925;-42
2023/07/01 10:58:35;;;;;;;;;;;19.20;99.90;;;;;;5032824;28;20017;-42
2023/07/01 11:01:03;;;;;;;;;;;19.20;99.90;;;;;;5013890;28;20392;-43
2023/07/01 11:03:48;;;;;;;;;;;19.20;99.90;;;;;;5009261;28;20020;-42
2023/07/01 11:06:15;;;;;;;;;;;19.30;99.90;;;;;;5024558;28;19933;-43
2023/07/01 11:08:45;;;;;;;;;;;19.30;99.90;;;;;;5028347;28;20339;-42
2023/07/01 11:11:12;;;;;;;;;;;19.40;99.90;;;;;;5027736;28;19930;-43
2023/07/01 11:13:38;;;;;;;;;;;19.40;99.90;;;;;;5026891;28;19925;-43
2023/07/01 11:16:06;;;;;;;;;;;19.50;99.90;;;;;;5022489;28;19925;-42
2023/07/01 11:18:41;;;;;;;;;;;19.50;99.90;;;;;;5028037;28;19933;-43
2023/07/01 11:21:09;;;;;;;;;;;19.50;99.90;;;;;;5026400;28;19925;-43
2023/07/01 11:23:36;;;;;;;;;;;19.50;99.90;;;;;;5009103;28;19929;-43
2023/07/01 11:26:04;;;;;;;;;;;19.50;99.90;;;;;;5012288;28;19933;-43
2023/07/01 11:28:34;;;;;;;;;;;19.50;99.90;;;;;;5040143;28;19925;-43
2023/07/01 11:31:10;;;;;;;;;;;19.60;99.90;;;;;;5026259;28;20356;-43
2023/07/01 11:33:37;;;;;;;;;;;19.60;99.90;;;;;;5025238;28;20056;-43
2023/07/01 11:36:03;;;;;;;;;;;19.60;99.90;;;;;;5027682;28;19932;-43
2023/07/01 11:38:30;;;;;;;;;;;19.60;99.90;;;;;;5015459;28;19925;-42
2023/07/01 11:40:57;;;;;;;;;;;19.60;99.90;;;;;;5031481;28;19932;-43
2023/07/01 11:43:26;;;;;;;;;;;19.70;99.90;;;;;;5027365;28;19976;-43
2023/07/01 11:45:53;;;;;;;;;;;19.70;99.90;;;;;;5031307;28;19989;-43
2023/07/01 11:48:29;;;;;;;;;;;19.80;99.90;;;;;;5040496;28;20431;-43
2023/07/01 11:50:56;;;;;;;;;;;19.80;99.90;;;;;;5007525;28;19984;-44
2023/07/01 11:53:22;;;;;;;;;;;19.90;99.90;;;;;;5008259;28;20672;-44
2023/07/01 11:55:49;;;;;;;;;;;20.00;99.90;;;;;;5031659;28;20194;-45
2023/07/01 11:58:30;;;;;;;;;;;20.10;99.90;;;;;;5031621;28;19932;-44
2023/07/01 12:00:56;;;;;;;;;;;20.10;99.90;;;;;;5012912;28;19925;-45
2023/07/01 12:03:25;;;;;;;;;;;20.20;99.90;;;;;;5043752;28;19972;-44
2023/07/01 12:05:52;;;;;;;;;;;20.10;99.90;;;;;;5014523;28;19929;-44
2023/07/01 12:08:19;;;;;;;;;;;20.10;99.90;;;;;;5029214;28;20018;-44
2023/07/01 12:10:45;;;;;;;;;;;20.00;99.90;;;;;;5040046;28;19964;-44
2023/07/01 12:13:28;;;;;;;;;;;19.90;99.90;;;;;;5030476;28;19935;-44
2023/07/01 12:15:56;;;;;;;;;;;19.80;99.90;;;;;;5013290;28;19929;-44
2023/07/01 12:18:26;;;;;;;;;;;19.80;99.90;;;;;;5041522;28;19929;-44
2023/07/01 12:20:53;;;;;;;;;;;19.80;99.90;;;;;;5004759;28;19933;-43
2023/07/01 12:23:20;;;;;;;;;;;19.80;99.90;;;;;;5019697;28;19925;-42
2023/07/01 12:25:46;;;;;;;;;;;19.80;99.90;;;;;;5018841;28;20344;-44
2023/07/01 12:28:13;;;;;;;;;;;19.70;99.90;;;;;;5019873;28;20027;-44
2023/07/01 12:30:40;;;;;;;;;;;19.70;99.90;;;;;;5017296;28;20108;-43
2023/07/01 12:33:08;;;;;;;;;;;19.60;99.90;;;;;;5019143;28;19959;-43
2023/07/01 12:35:34;;;;;;;;;;;19.60;99.90;;;;;;5010678;28;19925;-43
2023/07/01 12:38:01;;;;;;;;;;;19.60;99.90;;;;;;5013483;28;19933;-43
2023/07/01 12:40:28;;;;;;;;;;;19.60;99.90;;;;;;5013149;28;19956;-44
2023/07/01 12:42:55;;;;;;;;;;;19.60;99.90;;;;;;5009497;28;20058;-44
2023/07/01 12:45:21;;;;;;;;;;;19.70;99.90;;;;;;5025691;28;19932;-43
2023/07/01 12:47:48;;;;;;;;;;;19.70;99.90;;;;;;5024774;28;19929;-43
2023/07/01 12:50:16;;;;;;;;;;;19.70;99.90;;;;;;5024572;28;20367;-44
2023/07/01 12:52:43;;;;;;;;;;;19.80;99.90;;;;;;5030396;28;19933;-44
2023/07/01 12:55:10;;;;;;;;;;;19.80;99.90;;;;;;5012769;28;19959;-44
2023/07/01 12:57:37;;;;;;;;;;;19.90;99.90;;;;;;5025085;28;20340;-43
2023/07/01 13:00:05;;;;;;;;;;;20.00;99.90;;;;;;5029036;28;19925;-44
2023/07/01 13:02:32;;;;;;;;;;;20.10;99.90;;;;;;5011224;28;19964;-43
2023/07/01 13:04:59;;;;;;;;;;;20.20;99.90;;;;;;5031292;28;19933;-44
2023/07/01 13:07:28;;;;;;;;;;;20.20;99.90;;;;;;5028936;28;19931;-44
2023/07/01 13:09:55;;;;;;;;;;;20.10;99.90;;;;;;5040303;28;19962;-44
2023/07/01 13:12:24;;;;;;;;;;;20.10;99.90;;;;;;5039518;28;20336;-43
2023/07/01 13:14:51;;;;;;;;;;;20.00;99.90;;;;;;5030585;28;19936;-44
2023/07/01 13:17:18;;;;;;;;;;;19.90;99.90;;;;;;5024919;28;19964;-43
2023/07/01 13:19:45;;;;;;;;;;;19.90;99.90;;;;;;5011086;28;19968;-42
2023/07/01 13:22:13;;;;;;;;;;;20.10;99.90;;;;;;5027558;28;19948;-43
2023/07/01 13:24:43;;;;;;;;;;;20.20;99.90;;;;;;5026305;28;20379;-43
2023/07/01 13:27:11;;;;;;;;;;;20.30;99.90;;;;;;5011219;28;20020;-43
2023/07/01 13:29:37;;;;;;;;;;;20.40;99.90;;;;;;5010262;28;20512;-43
2023/07/01 13:32:05;;;;;;;;;;;20.50;99.90;;;;;;5023679;28;19948;-43
2023/07/01 13:34:32;;;;;;;;;;;20.50;99.90;;;;;;5010047;28;19932;-43
2023/07/01 13:36:59;;;;;;;;;;;20.50;99.90;;;;;;5010931;28;19929;-43
2023/07/01 13:39:26;;;;;;;;;;;20.60;99.90;;;;;;5013154;28;19932;-43
2023/07/01 13:41:54;;;;;;;;;;;20.60;99.90;;;;;;5029784;28;19935;-43
2023/07/01 13:44:22;;;;;;;;;;;20.50;99.90;;;;;;5029195;28;19925;-43
2023/07/01 13:46:50;;;;;;;;;;;20.50;99.90;;;;;;5014135;28;20373;-43
2023/07/01 13:49:17;;;;;;;;;;;20.60;99.90;;;;;;5015390;28;19929;-44
2023/07/01 13:51:44;;;;;;;;;;;20.70;99.90;;;;;;5013826;28;19933;-43
2023/07/01 13:54:11;;;;;;;;;;;20.90;99.90;;;;;;5010941;28;20285;-44
2023/07/01 13:56:38;;;;;;;;;;;21.00;99.90;;;;;;5012256;28;19972;-45
2023/07/01 13:59:06;;;;;;;;;;;21.00;99.90;;;;;;5032150;28;19987;-44
2023/07/01 14:01:32;;;;;;;;;;;21.00;99.90;;;;;;5039235;28;20479;-44
2023/07/01 14:04:00;;;;;;;;;;;21.00;99.90;;;;;;5026184;28;19979;-44
2023/07/01 14:06:28;;;;;;;;;;;20.90;99.90;;;;;;5029917;28;19960;-43
2023/07/01 14:08:56;;;;;;;;;;;20.80;99.90;;;;;;5012060;28;19976;-43
2023/07/01 14:11:24;;;;;;;;;;;20.80;99.90;;;;;;5029397;28;20019;-43
2023/07/01 14:13:51;;;;;;;;;;;20.80;99.90;;;;;;5012579;28;19933;-43
2023/07/01 14:16:20;;;;;;;;;;;20.80;99.90;;;;;;5046719;28;20393;-44
2023/07/01 14:18:47;;;;;;;;;;;20.70;99.90;;;;;;5030404;28;19929;-44